sensor_id;sensor_type;location;lat;lon;timestamp;temperature;humidity
23475;DHT22;11910;52.086;21.066;2023-11-25T00:00:46;3.80;99.90
23475;DHT22;11910;52.086;21.066;2023-11-25T00:03:13;3.80;99.90
23475;DHT22;11910;52.086;21.066;2023-11-25T00:05:39;3.90;99.90
23475;DHT22;11910;52.086;21.066;2023-11-25T00:08:05;3.90;99.90
23475;DHT22;11910;52.086;21.066;2023-11-25T00:10:31;3.90;99.90
23475;DHT22;11910;52.086;21.066;2023-11-25T00:12:57;3.90;99.90
23475;DHT22;11910;52.086;21.066;2023-11-25T00:15:22;3.90;99.90
23475;DHT22;11910;52.086;21.066;2023-11-25T00:17:53;3.90;99.90
23475;DHT22;11910;52.086;21.066;2023-11-25T00:20:23;3.90;99.90
23475;DHT22;11910;52.086;21.066;2023-11-25T00:22:50;3.90;99.90
23475;DHT22;11910;52.086;21.066;2023-11-25T00:25:17;4.00;99.90
23475;DHT22;11910;52.086;21.066;2023-11-25T00:27:44;4.00;99.90
23475;DHT22;11910;52.086;21.066;2023-11-25T00:30:11;4.10;99.90
23475;DHT22;11910;52.086;21.066;2023-11-25T00:32:37;4.10;99.90
23475;DHT22;11910;52.086;21.066;2023-11-25T00:35:07;4.10;99.90
23475;DHT22;11910;52.086;21.066;2023-11-25T00:37:33;4.10;99.90
23475;DHT22;11910;52.086;21.066;2023-11-25T00:39:59;4.10;99.90
23475;DHT22;11910;52.086;21.066;2023-11-25T00:42:25;4.20;99.90
23475;DHT22;11910;52.086;21.066;2023-11-25T00:44:51;4.10;99.90
23475;DHT22;11910;52.086;21.066;2023-11-25T00:47:18;4.10;99.90
23475;DHT22;11910;52.086;21.066;2023-11-25T00:49:45;4.20;99.90
23475;DHT22;11910;52.086;21.066;2023-11-25T00:52:14;4.10;99.90
23475;DHT22;11910;52.086;21.066;2023-11-25T00:54:40;4.10;99.90
23475;DHT22;11910;52.086;21.066;2023-11-25T00:57:06;4.00;99.90
23475;DHT22;11910;52.086;21.066;2023-11-25T00:59:31;4.00;99.90
23475;DHT22;11910;52.086;21.066;2023-11-25T01:01:57;4.00;99.90
23475;DHT22;11910;52.086;21.066;2023-11-25T01:04:23;4.00;99.90
23475;DHT22;11910;52.086;21.066;2023-11-25T01:06:49;4.00;99.90
23475;DHT22;11910;52.086;21.066;2023-11-25T01:09:15;3.90;99.90
23475;DHT22;11910;52.086;21.066;2023-11-25T01:11:45;3.90;99.90
23475;DHT22;11910;52.086;21.066;2023-11-25T01:14:11;4.00;99.90
23475;DHT22;11910;52.086;21.066;2023-11-25T01:16:38;4.00;99.90
23475;DHT22;11910;52.086;21.066;2023-11-25T01:19:04;4.00;99.90
23475;DHT22;11910;52.086;21.066;2023-11-25T01:21:30;4.00;99.90
23475;DHT22;11910;52.086;21.066;2023-11-25T01:23:56;4.00;99.90
23475;DHT22;11910;52.086;21.066;2023-11-25T01:26:21;4.00;99.90
23475;DHT22;11910;52.086;21.066;2023-11-25T01:28:48;4.00;99.90
23475;DHT22;11910;52.086;21.066;2023-11-25T01:31:13;4.00;99.90
23475;DHT22;11910;52.086;21.066;2023-11-25T01:33:40;4.00;99.90
23475;DHT22;11910;52.086;21.066;2023-11-25T01:36:07;4.10;99.90
23475;DHT22;11910;52.086;21.066;2023-11-25T01:38:39;4.00;99.90
23475;DHT22;11910;52.086;21.066;2023-11-25T01:41:05;4.00;99.90
23475;DHT22;11910;52.086;21.066;2023-11-25T01:43:32;4.00;99.90
23475;DHT22;11910;52.086;21.066;2023-11-25T01:45:59;4.10;99.90
23475;DHT22;11910;52.086;21.066;2023-11-25T01:48:27;4.10;99.90
23475;DHT22;11910;52.086;21.066;2023-11-25T01:50:55;4.10;99.90
23475;DHT22;11910;52.086;21.066;2023-11-25T01:53:22;4.10;99.90
23475;DHT22;11910;52.086;21.066;2023-11-25T01:55:51;4.10;99.90
23475;DHT22;11910;52.086;21.066;2023-11-25T01:58:18;4.00;99.90
23475;DHT22;11910;52.086;21.066;2023-11-25T02:00:49;4.00;99.90
23475;DHT22;11910;52.086;21.066;2023-11-25T02:03:16;4.00;99.90
23475;DHT22;11910;52.086;21.066;2023-11-25T02:05:44;4.00;99.90
23475;DHT22;11910;52.086;21.066;2023-11-25T02:08:11;4.00;99.90
23475;DHT22;11910;52.086;21.066;2023-11-25T02:10:37;3.90;99.90
23475;DHT22;11910;52.086;21.066;2023-11-25T02:13:04;3.80;99.90
23475;DHT22;11910;52.086;21.066;2023-11-25T02:15:34;3.70;99.90
23475;DHT22;11910;52.086;21.066;2023-11-25T02:18:00;3.70;99.90
23475;DHT22;11910;52.086;21.066;2023-11-25T02:20:36;3.60;99.90
23475;DHT22;11910;52.086;21.066;2023-11-25T02:23:04;3.60;99.90
23475;DHT22;11910;52.086;21.066;2023-11-25T02:25:30;3.60;99.90
23475;DHT22;11910;52.086;21.066;2023-11-25T02:27:56;3.50;99.90
23475;DHT22;11910;52.086;21.066;2023-11-25T02:30:22;3.50;99.90
23475;DHT22;11910;52.086;21.066;2023-11-25T02:32:52;3.40;99.90
23475;DHT22;11910;52.086;21.066;2023-11-25T02:35:19;3.40;99.90
23475;DHT22;11910;52.086;21.066;2023-11-25T02:37:46;3.40;99.90
23475;DHT22;11910;52.086;21.066;2023-11-25T02:40:15;3.40;99.90
23475;DHT22;11910;52.086;21.066;2023-11-25T02:42:44;3.50;99.90
23475;DHT22;11910;52.086;21.066;2023-11-25T02:45:16;3.40;99.90
23475;DHT22;11910;52.086;21.066;2023-11-25T02:47:48;3.50;99.90
23475;DHT22;11910;52.086;21.066;2023-11-25T02:50:15;3.40;99.90
23475;DHT22;11910;52.086;21.066;2023-11-25T02:52:40;3.40;99.90
23475;DHT22;11910;52.086;21.066;2023-11-25T02:55:07;3.40;99.90
23475;DHT22;11910;52.086;21.066;2023-11-25T02:57:40;3.40;99.90
23475;DHT22;11910;52.086;21.066;2023-11-25T03:00:13;3.40;99.90
23475;DHT22;11910;52.086;21.066;2023-11-25T03:02:56;3.40;99.90
23475;DHT22;11910;52.086;21.066;2023-11-25T03:05:30;3.40;99.90
23475;DHT22;11910;52.086;21.066;2023-11-25T03:07:58;3.40;99.90
23475;DHT22;11910;52.086;21.066;2023-11-25T03:10:26;3.40;99.90
23475;DHT22;11910;52.086;21.066;2023-11-25T03:12:52;3.40;99.90
23475;DHT22;11910;52.086;21.066;2023-11-25T03:15:18;3.40;99.90
23475;DHT22;11910;52.086;21.066;2023-11-25T03:17:44;3.40;99.90
23475;DHT22;11910;52.086;21.066;2023-11-25T03:20:10;3.30;99.90
23475;DHT22;11910;52.086;21.066;2023-11-25T03:22:35;3.30;99.90
23475;DHT22;11910;52.086;21.066;2023-11-25T03:25:01;3.30;99.90
23475;DHT22;11910;52.086;21.066;2023-11-25T03:27:27;3.30;99.90
23475;DHT22;11910;52.086;21.066;2023-11-25T03:30:01;3.20;99.90
23475;DHT22;11910;52.086;21.066;2023-11-25T03:32:27;3.20;99.90
23475;DHT22;11910;52.086;21.066;2023-11-25T03:34:54;3.20;99.90
23475;DHT22;11910;52.086;21.066;2023-11-25T03:37:21;3.20;99.90
23475;DHT22;11910;52.086;21.066;2023-11-25T03:39:46;3.20;99.90
23475;DHT22;11910;52.086;21.066;2023-11-25T03:42:12;3.20;99.90
23475;DHT22;11910;52.086;21.066;2023-11-25T03:44:38;3.10;99.90
23475;DHT22;11910;52.086;21.066;2023-11-25T03:47:03;3.10;99.90
23475;DHT22;11910;52.086;21.066;2023-11-25T03:49:32;3.20;99.90
23475;DHT22;11910;52.086;21.066;2023-11-25T03:51:57;3.20;99.90
23475;DHT22;11910;52.086;21.066;2023-11-25T03:54:23;3.30;99.90
23475;DHT22;11910;52.086;21.066;2023-11-25T03:56:49;3.30;99.90
23475;DHT22;11910;52.086;21.066;2023-11-25T03:59:15;3.30;99.90
23475;DHT22;11910;52.086;21.066;2023-11-25T04:01:41;3.30;99.90
23475;DHT22;11910;52.086;21.066;2023-11-25T04:04:10;3.20;99.90
23475;DHT22;11910;52.086;21.066;2023-11-25T04:06:36;3.20;99.90
23475;DHT22;11910;52.086;21.066;2023-11-25T04:09:01;3.20;99.90
23475;DHT22;11910;52.086;21.066;2023-11-25T04:11:27;3.20;99.90
23475;DHT22;11910;52.086;21.066;2023-11-25T04:13:53;3.20;99.90
23475;DHT22;11910;52.086;21.066;2023-11-25T04:16:24;3.20;99.90
23475;DHT22;11910;52.086;21.066;2023-11-25T04:18:49;3.20;99.90
23475;DHT22;11910;52.086;21.066;2023-11-25T04:21:15;3.20;99.90
23475;DHT22;11910;52.086;21.066;2023-11-25T04:23:41;3.20;99.90
23475;DHT22;11910;52.086;21.066;2023-11-25T04:26:07;3.20;99.90
23475;DHT22;11910;52.086;21.066;2023-11-25T04:28:32;3.20;99.90
23475;DHT22;11910;52.086;21.066;2023-11-25T04:30:59;3.20;99.90
23475;DHT22;11910;52.086;21.066;2023-11-25T04:33:25;3.20;99.90
23475;DHT22;11910;52.086;21.066;2023-11-25T04:35:51;3.30;99.90
23475;DHT22;11910;52.086;21.066;2023-11-25T04:38:19;3.20;99.90
23475;DHT22;11910;52.086;21.066;2023-11-25T04:40:45;3.20;99.90
23475;DHT22;11910;52.086;21.066;2023-11-25T04:43:10;3.20;99.90
23475;DHT22;11910;52.086;21.066;2023-11-25T04:45:36;3.30;99.90
23475;DHT22;11910;52.086;21.066;2023-11-25T04:48:01;3.20;99.90
23475;DHT22;11910;52.086;21.066;2023-11-25T04:50:27;3.30;99.90
23475;DHT22;11910;52.086;21.066;2023-11-25T04:52:54;3.20;99.90
23475;DHT22;11910;52.086;21.066;2023-11-25T04:55:20;3.20;99.90
23475;DHT22;11910;52.086;21.066;2023-11-25T04:57:47;3.20;99.90
23475;DHT22;11910;52.086;21.066;2023-11-25T05:00:13;3.20;99.90
23475;DHT22;11910;52.086;21.066;2023-11-25T05:02:41;3.20;99.90
23475;DHT22;11910;52.086;21.066;2023-11-25T05:05:10;3.30;99.90
23475;DHT22;11910;52.086;21.066;2023-11-25T05:07:35;3.20;99.90
23475;DHT22;11910;52.086;21.066;2023-11-25T05:10:02;3.30;99.90
23475;DHT22;11910;52.086;21.066;2023-11-25T05:12:30;3.30;99.90
23475;DHT22;11910;52.086;21.066;2023-11-25T05:14:56;3.30;99.90
23475;DHT22;11910;52.086;21.066;2023-11-25T05:17:22;3.30;99.90
23475;DHT22;11910;52.086;21.066;2023-11-25T05:19:47;3.30;99.90
23475;DHT22;11910;52.086;21.066;2023-11-25T05:22:13;3.30;99.90
23475;DHT22;11910;52.086;21.066;2023-11-25T05:24:39;3.30;99.90
23475;DHT22;11910;52.086;21.066;2023-11-25T05:27:05;3.20;99.90
23475;DHT22;11910;52.086;21.066;2023-11-25T05:29:30;3.20;99.90
23475;DHT22;11910;52.086;21.066;2023-11-25T05:31:56;3.20;99.90
23475;DHT22;11910;52.086;21.066;2023-11-25T05:34:24;3.20;99.90
23475;DHT22;11910;52.086;21.066;2023-11-25T05:36:49;3.20;99.90
23475;DHT22;11910;52.086;21.066;2023-11-25T05:39:15;3.20;99.90
23475;DHT22;11910;52.086;21.066;2023-11-25T05:41:49;3.20;99.90
23475;DHT22;11910;52.086;21.066;2023-11-25T05:44:15;3.20;99.90
23475;DHT22;11910;52.086;21.066;2023-11-25T05:46:41;3.20;99.90
23475;DHT22;11910;52.086;21.066;2023-11-25T05:49:06;3.20;99.90
23475;DHT22;11910;52.086;21.066;2023-11-25T05:51:37;3.30;99.90
23475;DHT22;11910;52.086;21.066;2023-11-25T05:54:09;3.20;99.90
23475;DHT22;11910;52.086;21.066;2023-11-25T05:56:39;3.30;99.90
23475;DHT22;11910;52.086;21.066;2023-11-25T05:59:05;3.30;99.90
23475;DHT22;11910;52.086;21.066;2023-11-25T06:01:36;3.20;99.90
23475;DHT22;11910;52.086;21.066;2023-11-25T06:04:02;3.20;99.90
23475;DHT22;11910;52.086;21.066;2023-11-25T06:06:28;3.20;99.90
23475;DHT22;11910;52.086;21.066;2023-11-25T06:08:54;3.20;99.90
23475;DHT22;11910;52.086;21.066;2023-11-25T06:11:23;3.10;99.90
23475;DHT22;11910;52.086;21.066;2023-11-25T06:13:52;3.10;99.90
23475;DHT22;11910;52.086;21.066;2023-11-25T06:16:19;3.10;99.90
23475;DHT22;11910;52.086;21.066;2023-11-25T06:18:44;3.10;99.90
23475;DHT22;11910;52.086;21.066;2023-11-25T06:21:10;3.10;99.90
23475;DHT22;11910;52.086;21.066;2023-11-25T06:23:36;3.00;99.90
23475;DHT22;11910;52.086;21.066;2023-11-25T06:26:01;3.00;99.90
23475;DHT22;11910;52.086;21.066;2023-11-25T06:28:27;3.00;99.90
23475;DHT22;11910;52.086;21.066;2023-11-25T06:30:54;3.10;99.90
23475;DHT22;11910;52.086;21.066;2023-11-25T06:33:22;3.10;99.90
23475;DHT22;11910;52.086;21.066;2023-11-25T06:35:48;3.10;99.90
23475;DHT22;11910;52.086;21.066;2023-11-25T06:38:13;3.10;99.90
23475;DHT22;11910;52.086;21.066;2023-11-25T06:40:39;3.10;99.90
23475;DHT22;11910;52.086;21.066;2023-11-25T06:43:06;3.10;99.90
23475;DHT22;11910;52.086;21.066;2023-11-25T06:45:31;3.10;99.90
23475;DHT22;11910;52.086;21.066;2023-11-25T06:47:59;3.10;99.90
23475;DHT22;11910;52.086;21.066;2023-11-25T06:50:24;3.10;99.90
23475;DHT22;11910;52.086;21.066;2023-11-25T06:52:50;3.20;99.90
23475;DHT22;11910;52.086;21.066;2023-11-25T06:55:18;3.20;99.90
23475;DHT22;11910;52.086;21.066;2023-11-25T06:57:44;3.20;99.90
23475;DHT22;11910;52.086;21.066;2023-11-25T07:00:10;3.30;99.90
23475;DHT22;11910;52.086;21.066;2023-11-25T07:02:36;3.20;99.90
23475;DHT22;11910;52.086;21.066;2023-11-25T07:05:02;3.20;99.90
23475;DHT22;11910;52.086;21.066;2023-11-25T07:07:28;3.20;99.90
23475;DHT22;11910;52.086;21.066;2023-11-25T07:09:55;3.20;99.90
23475;DHT22;11910;52.086;21.066;2023-11-25T07:12:20;3.30;99.90
23475;DHT22;11910;52.086;21.066;2023-11-25T07:14:46;3.20;99.90
23475;DHT22;11910;52.086;21.066;2023-11-25T07:17:12;3.30;99.90
23475;DHT22;11910;52.086;21.066;2023-11-25T07:19:41;3.20;99.90
23475;DHT22;11910;52.086;21.066;2023-11-25T07:22:08;3.20;99.90
23475;DHT22;11910;52.086;21.066;2023-11-25T07:24:34;3.20;99.90
23475;DHT22;11910;52.086;21.066;2023-11-25T07:27:01;3.10;99.90
23475;DHT22;11910;52.086;21.066;2023-11-25T07:29:33;3.10;99.90
23475;DHT22;11910;52.086;21.066;2023-11-25T07:32:00;3.10;99.90
23475;DHT22;11910;52.086;21.066;2023-11-25T07:34:30;3.00;99.90
23475;DHT22;11910;52.086;21.066;2023-11-25T07:36:58;3.10;99.90
23475;DHT22;11910;52.086;21.066;2023-11-25T07:39:25;3.00;99.90
23475;DHT22;11910;52.086;21.066;2023-11-25T07:41:55;3.00;99.90
23475;DHT22;11910;52.086;21.066;2023-11-25T07:44:23;3.10;99.90
23475;DHT22;11910;52.086;21.066;2023-11-25T07:46:50;3.10;99.90
23475;DHT22;11910;52.086;21.066;2023-11-25T07:49:18;3.10;99.90
23475;DHT22;11910;52.086;21.066;2023-11-25T07:51:47;3.10;99.90
23475;DHT22;11910;52.086;21.066;2023-11-25T07:54:14;3.10;99.90
23475;DHT22;11910;52.086;21.066;2023-11-25T07:56:40;3.30;99.90
23475;DHT22;11910;52.086;21.066;2023-11-25T07:59:05;3.20;99.90
23475;DHT22;11910;52.086;21.066;2023-11-25T08:01:31;3.30;99.90
23475;DHT22;11910;52.086;21.066;2023-11-25T08:03:57;3.30;99.90
23475;DHT22;11910;52.086;21.066;2023-11-25T08:06:23;3.40;99.90
23475;DHT22;11910;52.086;21.066;2023-11-25T08:08:51;3.40;99.90
23475;DHT22;11910;52.086;21.066;2023-11-25T08:11:24;3.50;99.90
23475;DHT22;11910;52.086;21.066;2023-11-25T08:13:50;3.50;99.90
23475;DHT22;11910;52.086;21.066;2023-11-25T08:16:17;3.40;99.90
23475;DHT22;11910;52.086;21.066;2023-11-25T08:18:44;3.50;99.90
23475;DHT22;11910;52.086;21.066;2023-11-25T08:21:11;3.40;99.90
23475;DHT22;11910;52.086;21.066;2023-11-25T08:23:39;3.40;99.90
23475;DHT22;11910;52.086;21.066;2023-11-25T08:26:04;3.50;99.90
23475;DHT22;11910;52.086;21.066;2023-11-25T08:28:30;3.50;99.90
23475;DHT22;11910;52.086;21.066;2023-11-25T08:30:56;3.40;99.90
23475;DHT22;11910;52.086;21.066;2023-11-25T08:33:23;3.60;99.90
23475;DHT22;11910;52.086;21.066;2023-11-25T08:35:50;3.60;99.90
23475;DHT22;11910;52.086;21.066;2023-11-25T08:38:16;3.50;99.90
23475;DHT22;11910;52.086;21.066;2023-11-25T08:40:41;3.50;99.90
23475;DHT22;11910;52.086;21.066;2023-11-25T08:43:07;3.50;99.90
23475;DHT22;11910;52.086;21.066;2023-11-25T08:45:39;3.50;99.90
23475;DHT22;11910;52.086;21.066;2023-11-25T08:48:04;3.50;99.90
23475;DHT22;11910;52.086;21.066;2023-11-25T08:50:33;3.50;99.90
23475;DHT22;11910;52.086;21.066;2023-11-25T08:52:59;3.50;99.90
23475;DHT22;11910;52.086;21.066;2023-11-25T08:55:27;3.50;99.90
23475;DHT22;11910;52.086;21.066;2023-11-25T08:57:53;3.40;99.90
23475;DHT22;11910;52.086;21.066;2023-11-25T09:00:19;3.50;99.90
23475;DHT22;11910;52.086;21.066;2023-11-25T09:02:46;3.50;99.90
23475;DHT22;11910;52.086;21.066;2023-11-25T09:05:14;3.40;99.90
23475;DHT22;11910;52.086;21.066;2023-11-25T09:07:43;3.50;99.90
23475;DHT22;11910;52.086;21.066;2023-11-25T09:10:10;3.50;99.90
23475;DHT22;11910;52.086;21.066;2023-11-25T09:12:37;3.50;99.90
23475;DHT22;11910;52.086;21.066;2023-11-25T09:15:03;3.40;99.90
23475;DHT22;11910;52.086;21.066;2023-11-25T09:17:32;3.40;99.90
23475;DHT22;11910;52.086;21.066;2023-11-25T09:20:08;3.30;99.90
23475;DHT22;11910;52.086;21.066;2023-11-25T09:22:38;3.30;99.90
23475;DHT22;11910;52.086;21.066;2023-11-25T09:25:04;3.30;99.90
23475;DHT22;11910;52.086;21.066;2023-11-25T09:27:30;3.40;99.90
23475;DHT22;11910;52.086;21.066;2023-11-25T09:29:55;3.40;99.90
23475;DHT22;11910;52.086;21.066;2023-11-25T09:32:21;3.50;99.90
23475;DHT22;11910;52.086;21.066;2023-11-25T09:34:48;3.50;99.90
23475;DHT22;11910;52.086;21.066;2023-11-25T09:37:14;3.40;99.90
23475;DHT22;11910;52.086;21.066;2023-11-25T09:39:40;3.40;99.90
23475;DHT22;11910;52.086;21.066;2023-11-25T09:42:06;3.30;99.90
23475;DHT22;11910;52.086;21.066;2023-11-25T09:44:32;3.20;99.90
23475;DHT22;11910;52.086;21.066;2023-11-25T09:46:58;3.20;99.90
23475;DHT22;11910;52.086;21.066;2023-11-25T09:49:24;3.10;99.90
23475;DHT22;11910;52.086;21.066;2023-11-25T09:51:51;3.00;99.90
23475;DHT22;11910;52.086;21.066;2023-11-25T09:54:21;3.10;99.90
23475;DHT22;11910;52.086;21.066;2023-11-25T09:56:50;3.00;99.90
23475;DHT22;11910;52.086;21.066;2023-11-25T09:59:16;2.80;99.90
23475;DHT22;11910;52.086;21.066;2023-11-25T10:01:45;2.70;99.90
23475;DHT22;11910;52.086;21.066;2023-11-25T10:04:16;2.60;99.90
23475;DHT22;11910;52.086;21.066;2023-11-25T10:06:42;2.60;99.90
23475;DHT22;11910;52.086;21.066;2023-11-25T10:09:08;2.50;99.90
23475;DHT22;11910;52.086;21.066;2023-11-25T10:11:37;2.40;99.90
23475;DHT22;11910;52.086;21.066;2023-11-25T10:14:11;2.50;99.90
23475;DHT22;11910;52.086;21.066;2023-11-25T10:16:43;2.50;99.90
23475;DHT22;11910;52.086;21.066;2023-11-25T10:19:22;2.40;99.90
23475;DHT22;11910;52.086;21.066;2023-11-25T10:21:49;2.40;99.90
23475;DHT22;11910;52.086;21.066;2023-11-25T10:24:18;2.40;99.90
23475;DHT22;11910;52.086;21.066;2023-11-25T10:26:51;2.40;99.90
23475;DHT22;11910;52.086;21.066;2023-11-25T10:29:19;2.40;99.90
23475;DHT22;11910;52.086;21.066;2023-11-25T10:31:47;2.50;99.90
23475;DHT22;11910;52.086;21.066;2023-11-25T10:34:17;2.50;99.90
23475;DHT22;11910;52.086;21.066;2023-11-25T10:36:42;2.60;99.90
23475;DHT22;11910;52.086;21.066;2023-11-25T10:39:10;2.60;99.90
23475;DHT22;11910;52.086;21.066;2023-11-25T10:41:36;2.70;99.90
23475;DHT22;11910;52.086;21.066;2023-11-25T10:44:07;2.60;99.90
23475;DHT22;11910;52.086;21.066;2023-11-25T10:46:40;2.60;99.90
23475;DHT22;11910;52.086;21.066;2023-11-25T10:49:08;2.60;99.90
23475;DHT22;11910;52.086;21.066;2023-11-25T10:51:35;2.50;99.90
23475;DHT22;11910;52.086;21.066;2023-11-25T10:54:02;2.50;99.90
23475;DHT22;11910;52.086;21.066;2023-11-25T10:56:28;2.40;99.90
23475;DHT22;11910;52.086;21.066;2023-11-25T10:58:56;2.40;99.90
23475;DHT22;11910;52.086;21.066;2023-11-25T11:01:24;2.30;99.90
23475;DHT22;11910;52.086;21.066;2023-11-25T11:04:12;2.40;99.90
23475;DHT22;11910;52.086;21.066;2023-11-25T11:06:47;2.40;99.90
23475;DHT22;11910;52.086;21.066;2023-11-25T11:09:18;2.40;99.90
23475;DHT22;11910;52.086;21.066;2023-11-25T11:11:51;2.40;99.90
23475;DHT22;11910;52.086;21.066;2023-11-25T11:14:22;2.50;99.90
23475;DHT22;11910;52.086;21.066;2023-11-25T11:17:10;2.50;99.90
23475;DHT22;11910;52.086;21.066;2023-11-25T11:19:42;2.50;99.90
23475;DHT22;11910;52.086;21.066;2023-11-25T11:22:10;2.60;99.90
23475;DHT22;11910;52.086;21.066;2023-11-25T11:28:06;2.50;99.90
23475;DHT22;11910;52.086;21.066;2023-11-25T11:33:40;2.60;99.90
23475;DHT22;11910;52.086;21.066;2023-11-25T11:36:06;2.70;99.90
23475;DHT22;11910;52.086;21.066;2023-11-25T11:38:32;2.70;99.90
23475;DHT22;11910;52.086;21.066;2023-11-25T11:40:59;2.70;99.90
23475;DHT22;11910;52.086;21.066;2023-11-25T11:43:25;2.80;99.90
23475;DHT22;11910;52.086;21.066;2023-11-25T11:45:54;2.80;99.90
23475;DHT22;11910;52.086;21.066;2023-11-25T11:48:32;2.70;99.90
23475;DHT22;11910;52.086;21.066;2023-11-25T11:50:58;2.80;99.90
23475;DHT22;11910;52.086;21.066;2023-11-25T11:53:27;2.80;99.90
23475;DHT22;11910;52.086;21.066;2023-11-25T11:55:54;2.70;99.90
23475;DHT22;11910;52.086;21.066;2023-11-25T11:58:22;2.70;99.90
23475;DHT22;11910;52.086;21.066;2023-11-25T12:00:48;2.70;99.90
23475;DHT22;11910;52.086;21.066;2023-11-25T12:03:18;2.70;99.90
23475;DHT22;11910;52.086;21.066;2023-11-25T12:05:44;2.70;99.90
23475;DHT22;11910;52.086;21.066;2023-11-25T12:08:10;2.70;99.90
23475;DHT22;11910;52.086;21.066;2023-11-25T12:10:37;2.70;99.90
23475;DHT22;11910;52.086;21.066;2023-11-25T12:13:03;2.70;99.90
23475;DHT22;11910;52.086;21.066;2023-11-25T12:15:44;2.70;99.90
23475;DHT22;11910;52.086;21.066;2023-11-25T12:18:10;2.70;99.90
23475;DHT22;11910;52.086;21.066;2023-11-25T12:20:36;2.70;99.90
23475;DHT22;11910;52.086;21.066;2023-11-25T12:23:06;2.70;99.90
23475;DHT22;11910;52.086;21.066;2023-11-25T12:25:34;2.70;99.90
23475;DHT22;11910;52.086;21.066;2023-11-25T12:28:08;2.80;99.90
23475;DHT22;11910;52.086;21.066;2023-11-25T12:30:40;2.80;99.90
23475;DHT22;11910;52.086;21.066;2023-11-25T12:33:10;2.80;99.90
23475;DHT22;11910;52.086;21.066;2023-11-25T12:35:39;2.80;99.90
23475;DHT22;11910;52.086;21.066;2023-11-25T12:38:05;2.80;99.90
23475;DHT22;11910;52.086;21.066;2023-11-25T12:40:32;2.70;99.90
23475;DHT22;11910;52.086;21.066;2023-11-25T12:42:58;2.70;99.90
23475;DHT22;11910;52.086;21.066;2023-11-25T12:45:28;2.70;99.90
23475;DHT22;11910;52.086;21.066;2023-11-25T12:47:55;2.70;99.90
23475;DHT22;11910;52.086;21.066;2023-11-25T12:50:23;2.70;99.90
23475;DHT22;11910;52.086;21.066;2023-11-25T12:58:07;2.80;99.90
23475;DHT22;11910;52.086;21.066;2023-11-25T13:00:34;2.80;99.90
23475;DHT22;11910;52.086;21.066;2023-11-25T13:03:01;2.80;99.90
23475;DHT22;11910;52.086;21.066;2023-11-25T13:05:30;2.80;99.90
23475;DHT22;11910;52.086;21.066;2023-11-25T13:07:56;2.80;99.90
23475;DHT22;11910;52.086;21.066;2023-11-25T13:10:22;2.80;99.90
23475;DHT22;11910;52.086;21.066;2023-11-25T13:12:48;2.90;99.90
23475;DHT22;11910;52.086;21.066;2023-11-25T13:15:14;2.90;99.90
23475;DHT22;11910;52.086;21.066;2023-11-25T13:17:40;2.90;99.90
23475;DHT22;11910;52.086;21.066;2023-11-25T13:20:06;2.90;99.90
23475;DHT22;11910;52.086;21.066;2023-11-25T13:22:41;2.90;99.90
23475;DHT22;11910;52.086;21.066;2023-11-25T13:25:07;2.90;99.90
23475;DHT22;11910;52.086;21.066;2023-11-25T13:27:33;2.90;99.90
23475;DHT22;11910;52.086;21.066;2023-11-25T13:29:58;2.90;99.90
23475;DHT22;11910;52.086;21.066;2023-11-25T13:32:24;3.00;99.90
23475;DHT22;11910;52.086;21.066;2023-11-25T13:34:50;3.10;99.90
23475;DHT22;11910;52.086;21.066;2023-11-25T13:37:16;3.10;99.90
23475;DHT22;11910;52.086;21.066;2023-11-25T13:39:41;3.10;99.90
23475;DHT22;11910;52.086;21.066;2023-11-25T13:42:07;3.10;99.90
23475;DHT22;11910;52.086;21.066;2023-11-25T13:44:33;3.10;99.90
23475;DHT22;11910;52.086;21.066;2023-11-25T13:46:59;3.10;99.90
23475;DHT22;11910;52.086;21.066;2023-11-25T13:49:25;3.20;99.90
23475;DHT22;11910;52.086;21.066;2023-11-25T13:51:55;3.20;99.90
23475;DHT22;11910;52.086;21.066;2023-11-25T13:54:21;3.20;99.90
23475;DHT22;11910;52.086;21.066;2023-11-25T13:56:47;3.20;99.90
23475;DHT22;11910;52.086;21.066;2023-11-25T13:59:13;3.10;99.90
23475;DHT22;11910;52.086;21.066;2023-11-25T14:01:39;3.10;99.90
23475;DHT22;11910;52.086;21.066;2023-11-25T14:04:05;3.10;99.90
23475;DHT22;11910;52.086;21.066;2023-11-25T14:06:32;3.00;99.90
23475;DHT22;11910;52.086;21.066;2023-11-25T14:08:58;3.00;99.90
23475;DHT22;11910;52.086;21.066;2023-11-25T14:11:25;3.00;99.90
23475;DHT22;11910;52.086;21.066;2023-11-25T14:13:51;3.00;99.90
23475;DHT22;11910;52.086;21.066;2023-11-25T14:16:17;3.00;99.90
23475;DHT22;11910;52.086;21.066;2023-11-25T14:18:43;3.00;99.90
23475;DHT22;11910;52.086;21.066;2023-11-25T14:21:09;3.00;99.90
23475;DHT22;11910;52.086;21.066;2023-11-25T14:23:35;3.00;99.90
23475;DHT22;11910;52.086;21.066;2023-11-25T14:26:01;3.00;99.90
23475;DHT22;11910;52.086;21.066;2023-11-25T14:28:27;3.00;99.90
23475;DHT22;11910;52.086;21.066;2023-11-25T14:30:53;3.00;99.90
23475;DHT22;11910;52.086;21.066;2023-11-25T14:33:18;3.00;99.90
23475;DHT22;11910;52.086;21.066;2023-11-25T14:35:44;3.00;99.90
23475;DHT22;11910;52.086;21.066;2023-11-25T14:38:10;3.00;99.90
23475;DHT22;11910;52.086;21.066;2023-11-25T14:40:36;3.10;99.90
23475;DHT22;11910;52.086;21.066;2023-11-25T14:43:04;3.10;99.90
23475;DHT22;11910;52.086;21.066;2023-11-25T14:45:30;3.00;99.90
23475;DHT22;11910;52.086;21.066;2023-11-25T14:47:56;3.10;99.90
23475;DHT22;11910;52.086;21.066;2023-11-25T14:50:22;3.10;99.90
23475;DHT22;11910;52.086;21.066;2023-11-25T14:52:49;3.10;99.90
23475;DHT22;11910;52.086;21.066;2023-11-25T14:55:15;3.10;99.90
23475;DHT22;11910;52.086;21.066;2023-11-25T14:57:41;3.20;99.90
23475;DHT22;11910;52.086;21.066;2023-11-25T15:00:08;3.20;99.90
23475;DHT22;11910;52.086;21.066;2023-11-25T15:02:36;3.20;99.90
23475;DHT22;11910;52.086;21.066;2023-11-25T15:05:05;3.20;99.90
23475;DHT22;11910;52.086;21.066;2023-11-25T15:07:31;3.20;99.90
23475;DHT22;11910;52.086;21.066;2023-11-25T15:09:56;3.20;99.90
23475;DHT22;11910;52.086;21.066;2023-11-25T15:12:23;3.10;99.90
23475;DHT22;11910;52.086;21.066;2023-11-25T15:14:49;3.00;99.90
23475;DHT22;11910;52.086;21.066;2023-11-25T15:17:15;3.00;99.90
23475;DHT22;11910;52.086;21.066;2023-11-25T15:19:41;3.00;99.90
23475;DHT22;11910;52.086;21.066;2023-11-25T15:22:09;3.00;99.90
23475;DHT22;11910;52.086;21.066;2023-11-25T15:24:38;3.00;99.90
23475;DHT22;11910;52.086;21.066;2023-11-25T15:27:04;3.00;99.90
23475;DHT22;11910;52.086;21.066;2023-11-25T15:29:30;3.00;99.90
23475;DHT22;11910;52.086;21.066;2023-11-25T15:31:56;3.00;99.90
23475;DHT22;11910;52.086;21.066;2023-11-25T15:34:22;3.00;99.90
23475;DHT22;11910;52.086;21.066;2023-11-25T15:36:47;2.90;99.90
23475;DHT22;11910;52.086;21.066;2023-11-25T15:39:15;2.90;99.90
23475;DHT22;11910;52.086;21.066;2023-11-25T15:41:44;2.90;99.90